Time;durP1;ratioP1;P1;durP2;ratioP2;P2;SDS_P1;SDS_P2;PMS_P1;PMS_P2;Temp;Humidity;BMP_temperature;BMP_pressure;BME280_temperature;BME280_humidity;BME280_pressure;Samples;Min_cycle;Max_cycle;Signal;HPM_P1;HPM_P2
2020/12/02 00:01:33;;;;;;;3.30;2.40;;;15.80;67.40;;;;;;10454529;28;20029;-58
2020/12/02 00:06:34;;;;;;;5.13;2.65;;;15.80;66.90;;;;;;10449765;28;20041;-58
2020/12/02 00:11:35;;;;;;;5.07;2.70;;;15.70;66.70;;;;;;10455878;28;20098;-58
2020/12/02 00:16:35;;;;;;;3.75;2.30;;;15.70;66.70;;;;;;10454958;28;20028;-58
2020/12/02 00:21:36;;;;;;;3.17;2.20;;;15.70;66.80;;;;;;10455554;28;20028;-58
2020/12/02 00:26:37;;;;;;;4.65;2.38;;;15.80;66.80;;;;;;10452878;28;20055;-58
2020/12/02 00:31:37;;;;;;;3.15;2.22;;;15.70;66.80;;;;;;10455566;28;20155;-57
2020/12/02 00:36:39;;;;;;;4.63;3.13;;;15.70;66.80;;;;;;10466812;28;20041;-57
2020/12/02 00:41:41;;;;;;;3.80;2.40;;;15.70;66.80;;;;;;10455635;28;20040;-56
2020/12/02 00:46:46;;;;;;;4.32;2.35;;;15.70;66.80;;;;;;10445321;28;20039;-58
2020/12/02 00:51:47;;;;;;;4.45;2.20;;;15.70;66.90;;;;;;10470350;28;20103;-58
2020/12/02 00:56:48;;;;;;;5.80;2.50;;;15.70;66.90;;;;;;10446552;28;20116;-58
2020/12/02 01:02:30;;;;;;;3.83;2.42;;;15.70;66.80;;;;;;10451669;28;20054;-58
2020/12/02 01:07:30;;;;;;;4.53;3.15;;;15.60;67.30;;;;;;10469121;28;20029;-57
2020/12/02 01:12:32;;;;;;;4.43;2.42;;;15.60;66.70;;;;;;10453990;28;20040;-57
2020/12/02 01:17:32;;;;;;;4.07;2.70;;;15.60;66.70;;;;;;10461314;28;20041;-58
2020/12/02 01:22:42;;;;;;;7.75;3.30;;;15.60;66.70;;;;;;10461284;28;20025;-58
2020/12/02 01:27:52;;;;;;;4.50;2.80;;;15.60;66.70;;;;;;10474251;28;20033;-57
2020/12/02 01:32:53;;;;;;;4.65;2.70;;;15.60;66.80;;;;;;10460640;28;20111;-58
2020/12/02 01:38:02;;;;;;;5.82;3.25;;;15.60;66.70;;;;;;10461085;28;20580;-58
2020/12/02 01:43:12;;;;;;;4.25;3.13;;;15.60;66.80;;;;;;10482229;28;20044;-57
2020/12/02 01:49:02;;;;;;;3.97;2.92;;;15.60;66.80;;;;;;10458394;28;20033;-57
2020/12/02 01:54:36;;;;;;;4.95;3.08;;;15.60;66.80;;;;;;10453897;28;20029;-58
2020/12/02 02:00:00;;;;;;;4.75;2.80;;;15.50;66.80;;;;;;10449909;28;20103;-57
2020/12/02 02:05:09;;;;;;;5.15;2.70;;;15.50;66.80;;;;;;10458880;28;20044;-57
2020/12/02 02:10:31;;;;;;;3.63;2.65;;;15.50;66.70;;;;;;10461081;28;20028;-58
2020/12/02 02:15:49;;;;;;;4.28;2.72;;;15.50;66.80;;;;;;10449158;28;20040;-58
2020/12/02 02:21:00;;;;;;;5.30;2.92;;;15.50;66.70;;;;;;10456045;28;20056;-58
2020/12/02 02:26:13;;;;;;;4.38;3.08;;;15.50;66.80;;;;;;10459133;28;20041;-58
2020/12/02 02:31:22;;;;;;;4.30;2.67;;;15.50;67.40;;;;;;10450408;28;20044;-58
2020/12/02 02:36:27;;;;;;;4.35;2.97;;;15.50;66.80;;;;;;10446683;28;20053;-58
2020/12/02 02:41:28;;;;;;;3.45;2.45;;;15.40;66.70;;;;;;10466542;28;20500;-57
2020/12/02 02:46:29;;;;;;;3.90;2.83;;;15.40;66.70;;;;;;10459152;28;20029;-58
2020/12/02 02:51:31;;;;;;;3.80;3.00;;;15.40;66.70;;;;;;10459233;28;20104;-57
2020/12/02 02:56:31;;;;;;;5.43;3.67;;;15.40;66.80;;;;;;10457084;28;20408;-58
2020/12/02 03:01:34;;;;;;;4.90;3.17;;;15.40;66.80;;;;;;10458620;28;20049;-57
2020/12/02 03:06:35;;;;;;;4.88;3.28;;;15.40;66.80;;;;;;10454233;28;20376;-58
2020/12/02 03:11:36;;;;;;;4.15;3.03;;;15.40;66.80;;;;;;10457301;28;20064;-57
2020/12/02 03:16:46;;;;;;;4.90;3.55;;;15.30;66.70;;;;;;10452022;28;20065;-58
2020/12/02 03:21:49;;;;;;;5.00;3.38;;;15.40;66.80;;;;;;10457047;28;20083;-58
2020/12/02 03:26:50;;;;;;;5.15;2.88;;;15.40;66.90;;;;;;10472679;28;20029;-58
2020/12/02 03:31:51;;;;;;;5.40;3.28;;;15.30;66.80;;;;;;10457589;28;20377;-58
2020/12/02 03:36:51;;;;;;;4.68;3.40;;;15.30;66.80;;;;;;10445697;28;20060;-58
2020/12/02 03:41:52;;;;;;;5.25;3.63;;;15.30;66.80;;;;;;10463956;28;20388;-57
2020/12/02 03:46:53;;;;;;;3.78;2.78;;;15.30;66.80;;;;;;10464073;28;20036;-58
2020/12/02 03:51:54;;;;;;;5.45;3.60;;;15.30;66.80;;;;;;10455613;28;20473;-58
2020/12/02 03:56:54;;;;;;;5.50;3.65;;;15.30;66.80;;;;;;10456373;28;20036;-58
2020/12/02 04:01:56;;;;;;;5.68;3.67;;;15.30;66.80;;;;;;10454783;28;20033;-58
2020/12/02 04:06:56;;;;;;;4.22;3.17;;;15.30;66.80;;;;;;10455020;28;20025;-58
2020/12/02 04:11:57;;;;;;;5.15;3.53;;;15.30;66.80;;;;;;10456033;28;20040;-57
2020/12/02 04:16:58;;;;;;;5.32;3.75;;;15.30;66.80;;;;;;10454744;28;20037;-58
2020/12/02 04:21:59;;;;;;;5.78;3.83;;;15.30;66.80;;;;;;10455755;28;20100;-57
2020/12/02 04:27:00;;;;;;;5.45;4.13;;;15.20;66.80;;;;;;10463393;28;20393;-58
2020/12/02 04:32:01;;;;;;;5.82;4.03;;;15.30;66.90;;;;;;10455597;28;20134;-58
2020/12/02 04:37:03;;;;;;;4.60;3.70;;;15.20;66.80;;;;;;10446292;28;20045;-57
2020/12/02 04:42:05;;;;;;;4.70;3.40;;;15.20;66.80;;;;;;10462560;28;20033;-58
2020/12/02 04:47:11;;;;;;;5.63;3.85;;;15.20;66.80;;;;;;10448640;28;20100;-58
2020/12/02 04:52:14;;;;;;;5.47;3.42;;;15.20;66.80;;;;;;10453720;28;20032;-57
2020/12/02 04:57:16;;;;;;;5.68;4.07;;;15.20;66.80;;;;;;10450989;28;20022;-57
2020/12/02 05:02:29;;;;;;;4.60;3.42;;;15.20;66.80;;;;;;10454558;28;20032;-58
2020/12/02 05:07:31;;;;;;;7.03;4.40;;;15.20;66.80;;;;;;10453130;28;20045;-58
2020/12/02 05:12:40;;;;;;;4.57;3.28;;;15.20;66.80;;;;;;10454875;28;20117;-58
2020/12/02 05:17:40;;;;;;;5.17;3.63;;;15.20;66.90;;;;;;10437651;28;20115;-58
2020/12/02 05:22:46;;;;;;;4.68;3.28;;;15.20;66.90;;;;;;10454370;28;20067;-58
2020/12/02 05:27:51;;;;;;;4.68;3.55;;;15.10;66.80;;;;;;10448278;28;20039;-58
2020/12/02 05:33:23;;;;;;;6.07;4.57;;;15.20;66.90;;;;;;10453429;28;20040;-58
2020/12/02 05:38:35;;;;;;;5.93;3.88;;;15.10;66.80;;;;;;10433209;28;20047;-57
2020/12/02 05:43:58;;;;;;;4.63;3.72;;;15.10;66.80;;;;;;10449627;28;20029;-57
2020/12/02 05:49:23;;;;;;;4.53;3.60;;;15.10;66.80;;;;;;10444796;28;20064;-58
2020/12/02 05:54:25;;;;;;;7.07;4.00;;;15.10;66.90;;;;;;10453893;28;20493;-58
2020/12/02 05:59:26;;;;;;;5.75;4.13;;;15.10;66.80;;;;;;10468293;28;20068;-58
2020/12/02 06:04:27;;;;;;;5.50;3.75;;;15.10;66.90;;;;;;10461119;28;20112;-58
2020/12/02 06:09:48;;;;;;;6.70;4.45;;;15.10;66.90;;;;;;10464839;28;20485;-57
2020/12/02 06:14:50;;;;;;;9.60;4.93;;;15.10;66.90;;;;;;10458509;28;20132;-59
2020/12/02 06:19:51;;;;;;;10.95;4.68;;;15.10;68.40;;;;;;10450146;28;20065;-58
2020/12/02 06:24:52;;;;;;;11.40;5.60;;;15.20;68.50;;;;;;10442286;28;20112;-56
2020/12/02 06:30:04;;;;;;;9.02;4.68;;;15.30;68.20;;;;;;10459967;28;20376;-56
2020/12/02 06:35:23;;;;;;;9.95;5.68;;;15.60;67.80;;;;;;10457900;28;20098;-55
2020/12/02 06:40:24;;;;;;;8.07;4.53;;;16.00;66.50;;;;;;10452770;28;20485;-57
2020/12/02 06:45:37;;;;;;;8.55;4.15;;;16.50;65.30;;;;;;10453647;28;20476;-57
2020/12/02 06:50:39;;;;;;;7.95;4.10;;;16.80;64.80;;;;;;10459155;28;20032;-56
2020/12/02 06:55:40;;;;;;;10.95;3.85;;;17.00;63.90;;;;;;10458217;28;20032;-56
2020/12/02 07:00:53;;;;;;;10.60;5.07;;;17.10;63.80;;;;;;10458414;28;20029;-57
2020/12/02 07:06:09;;;;;;;12.10;4.40;;;17.30;63.40;;;;;;10457048;28;20497;-51
2020/12/02 07:11:17;;;;;;;13.85;4.22;;;17.40;63.20;;;;;;10454307;28;20396;-57
2020/12/02 07:16:38;;;;;;;7.60;4.32;;;17.50;62.80;;;;;;10448190;28;20489;-56
2020/12/02 07:22:00;;;;;;;10.57;3.95;;;17.60;62.40;;;;;;10453495;28;20409;-57
2020/12/02 07:27:00;;;;;;;18.27;5.03;;;17.70;61.90;;;;;;10464270;28;20028;-53
2020/12/02 07:32:11;;;;;;;13.23;4.45;;;17.80;61.50;;;;;;10462594;28;20428;-56
2020/12/02 07:37:21;;;;;;;10.18;4.47;;;17.90;61.40;;;;;;10454160;28;20041;-56
2020/12/02 07:42:43;;;;;;;8.63;3.85;;;18.00;61.10;;;;;;10459242;28;20040;-56
2020/12/02 07:47:59;;;;;;;7.25;3.45;;;18.00;61.20;;;;;;10454948;28;20041;-55
2020/12/02 07:53:24;;;;;;;7.63;4.20;;;18.00;61.40;;;;;;10448009;28;20037;-55
2020/12/02 07:58:32;;;;;;;7.13;3.97;;;17.80;61.90;;;;;;10454530;28;20505;-55
2020/12/02 08:03:40;;;;;;;11.68;4.43;;;17.70;62.20;;;;;;10453397;28;20029;-55
2020/12/02 08:08:41;;;;;;;11.48;3.78;;;17.60;62.50;;;;;;10471614;28;20044;-56
2020/12/02 08:13:57;;;;;;;11.70;5.13;;;17.60;62.90;;;;;;10453003;28;20051;-55
2020/12/02 08:18:58;;;;;;;11.30;5.68;;;17.50;62.90;;;;;;10455601;28;20040;-57
2020/12/02 08:24:41;;;;;;;8.73;4.55;;;17.50;63.10;;;;;;10455156;28;20480;-56
2020/12/02 08:29:50;;;;;;;10.45;4.35;;;17.50;63.50;;;;;;10446709;28;20032;-57
2020/12/02 08:34:50;;;;;;;11.70;4.23;;;17.50;64.60;;;;;;10454400;28;20032;-56
2020/12/02 08:39:55;;;;;;;9.00;4.88;;;17.50;64.60;;;;;;10453023;28;20047;-56
2020/12/02 08:45:20;;;;;;;9.45;4.55;;;17.50;64.70;;;;;;10445950;28;20103;-57
2020/12/02 08:50:28;;;;;;;13.40;4.97;;;17.50;64.80;;;;;;10454980;28;20120;-57
2020/12/02 08:55:29;;;;;;;8.90;4.45;;;17.40;64.80;;;;;;10451373;28;20037;-57
2020/12/02 09:00:29;;;;;;;8.80;4.25;;;17.40;64.50;;;;;;10454786;28;20127;-57
2020/12/02 09:05:31;;;;;;;12.23;4.88;;;17.30;64.50;;;;;;10449794;28;20104;-58
2020/12/02 09:10:32;;;;;;;9.73;4.90;;;17.30;64.20;;;;;;10450761;28;20442;-57
2020/12/02 09:15:33;;;;;;;10.20;4.40;;;17.30;63.90;;;;;;10451704;28;20017;-58
2020/12/02 09:20:34;;;;;;;11.43;4.53;;;17.40;63.80;;;;;;10449112;28;20529;-58
2020/12/02 09:25:34;;;;;;;6.97;4.72;;;17.50;63.60;;;;;;10451466;28;20033;-58
2020/12/02 09:30:35;;;;;;;6.47;3.90;;;17.40;63.70;;;;;;10454339;28;20032;-58
2020/12/02 09:35:37;;;;;;;9.40;4.05;;;17.40;63.60;;;;;;10444858;28;20200;-57
2020/12/02 09:40:38;;;;;;;8.52;4.45;;;17.40;63.60;;;;;;10467373;28;20033;-56
2020/12/02 09:45:50;;;;;;;7.40;3.72;;;17.40;63.60;;;;;;10459538;28;20108;-58
2020/12/02 09:50:51;;;;;;;8.15;4.70;;;17.40;63.50;;;;;;10461718;28;20051;-58
2020/12/02 09:55:53;;;;;;;8.45;4.10;;;17.40;63.70;;;;;;10459552;28;20049;-58
2020/12/02 10:01:02;;;;;;;7.70;3.72;;;17.30;63.50;;;;;;10460999;28;20481;-58
2020/12/02 10:06:54;;;;;;;6.30;3.75;;;17.50;63.20;;;;;;10456093;28;20114;-58
2020/12/02 10:12:23;;;;;;;7.43;4.65;;;17.40;63.20;;;;;;10430390;28;20045;-57
2020/12/02 10:18:00;;;;;;;5.90;3.95;;;17.50;62.90;;;;;;10468430;28;20025;-58
2020/12/02 10:23:24;;;;;;;7.25;4.30;;;17.50;63.00;;;;;;10459119;28;20251;-58
2020/12/02 10:29:01;;;;;;;7.82;4.00;;;17.40;63.20;;;;;;10446831;28;20098;-58
2020/12/02 10:34:22;;;;;;;5.15;3.20;;;17.40;63.10;;;;;;10471920;28;20044;-58
2020/12/02 10:39:31;;;;;;;6.53;3.83;;;17.40;63.40;;;;;;10447201;28;20052;-58
2020/12/02 10:44:59;;;;;;;7.85;4.38;;;17.40;63.20;;;;;;10454591;28;20039;-57
2020/12/02 10:50:00;;;;;;;9.52;4.88;;;17.40;63.40;;;;;;10458390;28;20025;-58
2020/12/02 10:55:02;;;;;;;5.22;3.60;;;17.30;63.20;;;;;;10452444;28;20032;-57
2020/12/02 11:00:07;;;;;;;6.25;3.95;;;17.30;63.30;;;;;;10456711;28;20413;-56
2020/12/02 11:05:09;;;;;;;6.03;4.20;;;17.40;63.20;;;;;;10454977;28;20082;-57
2020/12/02 11:10:50;;;;;;;7.13;4.53;;;17.40;63.30;;;;;;10455377;28;20036;-55
2020/12/02 11:15:59;;;;;;;9.90;4.15;;;17.40;63.40;;;;;;10386697;28;20041;-55
2020/12/02 11:21:44;;;;;;;10.37;4.30;;;17.40;64.60;;;;;;10455293;28;20482;-56
2020/12/02 11:26:44;;;;;;;9.05;3.90;;;17.40;64.80;;;;;;10443998;28;20052;-57
2020/12/02 11:32:04;;;;;;;8.13;4.07;;;17.40;65.60;;;;;;10457299;28;20542;-56
2020/12/02 11:37:25;;;;;;;6.73;4.27;;;17.50;65.50;;;;;;10465994;28;20043;-57
2020/12/02 11:42:55;;;;;;;8.15;3.90;;;17.50;66.00;;;;;;10454928;28;20029;-58
2020/12/02 11:48:04;;;;;;;9.98;5.00;;;17.40;66.20;;;;;;10451930;28;20039;-56
2020/12/02 11:53:34;;;;;;;11.00;4.18;;;17.50;65.90;;;;;;10437656;28;20025;-60
2020/12/02 11:58:34;;;;;;;7.65;3.70;;;17.50;66.00;;;;;;10448935;28;20032;-56
2020/12/02 12:03:53;;;;;;;6.60;3.90;;;17.40;66.00;;;;;;10455515;28;20020;-57
2020/12/02 12:09:10;;;;;;;9.45;4.57;;;17.30;66.00;;;;;;10457555;28;20025;-57
2020/12/02 12:14:56;;;;;;;12.50;4.40;;;17.30;65.80;;;;;;10430755;28;20438;-57
2020/12/02 12:20:16;;;;;;;14.52;4.85;;;17.40;65.70;;;;;;10427829;28;20059;-57
2020/12/02 12:25:24;;;;;;;;;;;17.30;66.20;;;;;;10446080;28;20041;-57
2020/12/02 12:30:25;;;;;;;12.00;4.80;;;17.40;66.40;;;;;;10453674;28;20066;-57
2020/12/02 12:35:32;;;;;;;7.55;4.00;;;17.30;66.50;;;;;;10453358;28;20028;-58
2020/12/02 12:40:42;;;;;;;11.50;4.93;;;17.30;66.20;;;;;;10451141;28;20037;-60
2020/12/02 12:45:53;;;;;;;8.93;4.40;;;17.20;65.80;;;;;;10440872;28;20033;-59
2020/12/02 12:50:53;;;;;;;10.88;5.05;;;17.30;65.40;;;;;;10469862;28;20079;-59
2020/12/02 12:55:55;;;;;;;10.73;3.95;;;17.30;65.30;;;;;;10449484;28;20112;-60
2020/12/02 13:00:56;;;;;;;9.90;3.67;;;17.30;65.30;;;;;;10468896;28;20025;-60
2020/12/02 13:06:22;;;;;;;6.68;4.10;;;17.30;65.20;;;;;;10446981;28;20124;-58
2020/12/02 13:12:05;;;;;;;7.10;3.53;;;17.30;65.20;;;;;;10474809;28;20501;-60
2020/12/02 13:17:22;;;;;;;11.73;4.60;;;17.20;65.40;;;;;;10439840;28;20033;-59
2020/12/02 13:22:36;;;;;;;8.73;4.88;;;17.20;65.00;;;;;;10450058;28;20032;-60
2020/12/02 13:28:02;;;;;;;17.20;4.43;;;17.30;65.10;;;;;;10445125;28;20025;-60
2020/12/02 13:33:22;;;;;;;11.82;5.22;;;17.30;66.00;;;;;;10467815;28;20473;-61
2020/12/02 13:38:22;;;;;;;;;;;17.30;65.50;;;;;;10475523;28;20044;-59
2020/12/02 13:43:29;;;;;;;17.27;5.10;;;17.20;65.70;;;;;;10467841;28;19913;-60
2020/12/02 13:48:30;;;;;;;22.52;6.40;;;17.10;66.20;;;;;;10457858;28;20104;-61
2020/12/02 13:53:38;;;;;;;25.23;6.00;;;17.10;66.60;;;;;;10449608;28;20115;-59
2020/12/02 13:58:55;;;;;;;19.05;6.18;;;17.00;66.70;;;;;;10442100;28;20507;-61
2020/12/02 14:04:18;;;;;;;16.30;5.97;;;16.90;66.80;;;;;;10453255;28;20025;-61
2020/12/02 14:09:20;;;;;;;17.35;6.00;;;16.90;66.70;;;;;;10460665;28;20028;-61
2020/12/02 14:14:33;;;;;;;16.88;6.13;;;16.90;66.40;;;;;;10457779;28;20458;-62
2020/12/02 14:19:34;;;;;;;21.77;6.13;;;17.00;66.30;;;;;;10455516;28;20035;-62
2020/12/02 14:24:35;;;;;;;14.38;6.35;;;17.00;66.10;;;;;;10455208;28;20572;-60
2020/12/02 14:29:36;;;;;;;16.27;6.28;;;17.00;66.00;;;;;;10457645;28;20025;-60
2020/12/02 14:34:38;;;;;;;21.50;7.15;;;17.10;66.00;;;;;;10459655;28;20028;-59
2020/12/02 14:39:39;;;;;;;23.35;6.05;;;17.10;66.00;;;;;;10459061;28;20057;-59
2020/12/02 14:44:42;;;;;;;23.10;6.78;;;17.10;66.50;;;;;;10456955;28;20032;-59
2020/12/02 14:49:43;;;;;;;21.75;6.20;;;17.10;66.90;;;;;;10458622;28;20028;-59
2020/12/02 14:54:44;;;;;;;16.95;5.95;;;17.20;66.80;;;;;;10455852;28;20112;-59
2020/12/02 15:00:12;;;;;;;20.65;6.95;;;17.20;67.00;;;;;;10458911;28;20032;-60
2020/12/02 15:05:26;;;;;;;17.73;5.72;;;17.10;67.00;;;;;;10447734;28;20102;-60
2020/12/02 15:10:35;;;;;;;19.23;5.95;;;17.10;67.00;;;;;;10458449;28;20120;-60
2020/12/02 15:15:36;;;;;;;20.50;6.00;;;17.20;67.00;;;;;;10457676;28;20546;-57
2020/12/02 15:20:45;;;;;;;15.98;5.47;;;17.10;67.00;;;;;;10432648;28;20080;-58
2020/12/02 15:25:46;;;;;;;15.57;5.00;;;17.20;67.00;;;;;;10424538;28;20026;-59
2020/12/02 15:30:51;;;;;;;23.77;6.18;;;17.10;67.00;;;;;;10419728;28;20022;-61
2020/12/02 15:36:00;;;;;;;16.35;6.43;;;17.10;66.80;;;;;;10417567;28;20045;-60
2020/12/02 15:41:13;;;;;;;25.60;6.53;;;17.20;66.60;;;;;;10425142;28;20033;-57
2020/12/02 15:46:29;;;;;;;18.70;6.53;;;17.20;66.70;;;;;;10444321;28;20033;-57
2020/12/02 15:51:43;;;;;;;19.20;6.95;;;17.20;67.00;;;;;;10456512;28;20051;-57
2020/12/02 15:57:22;;;;;;;18.13;6.63;;;17.10;67.30;;;;;;10426825;28;20338;-58
2020/12/02 16:02:24;;;;;;;13.98;5.40;;;17.20;67.30;;;;;;10421742;28;20049;-57
2020/12/02 16:07:43;;;;;;;28.27;7.68;;;17.20;67.30;;;;;;10452935;28;20037;-57
2020/12/02 16:12:44;;;;;;;16.20;6.90;;;17.10;68.10;;;;;;10455475;28;20032;-58
2020/12/02 16:17:46;;;;;;;16.48;7.40;;;17.10;68.10;;;;;;10454487;28;20035;-57
2020/12/02 16:23:14;;;;;;;19.63;6.57;;;17.10;68.10;;;;;;10456282;28;20021;-57
2020/12/02 16:28:22;;;;;;;19.35;7.43;;;17.20;68.00;;;;;;10442848;28;20104;-57
2020/12/02 16:33:32;;;;;;;23.95;8.23;;;17.30;69.10;;;;;;10450853;28;20032;-56
2020/12/02 16:38:34;;;;;;;472.80;302.73;;;17.20;68.40;;;;;;10454842;28;20473;-58
2020/12/02 16:44:05;;;;;;;291.02;172.95;;;17.10;68.90;;;;;;10461512;28;20493;-58
2020/12/02 16:49:35;;;;;;;195.65;115.53;;;17.00;67.90;;;;;;10437913;28;20519;-57
2020/12/02 16:55:21;;;;;;;169.07;101.50;;;16.90;67.50;;;;;;10446693;28;20120;-56
2020/12/02 17:00:33;;;;;;;138.10;82.00;;;17.00;66.80;;;;;;10433925;28;20041;-56
2020/12/02 17:05:34;;;;;;;118.90;69.40;;;17.00;65.90;;;;;;10436732;28;20479;-56
2020/12/02 17:10:34;;;;;;;116.18;70.00;;;17.10;69.20;;;;;;10454696;28;20155;-59
2020/12/02 17:15:57;;;;;;;124.82;71.97;;;17.30;68.40;;;;;;10454327;28;20033;-56
2020/12/02 17:21:22;;;;;;;113.55;66.35;;;17.40;68.40;;;;;;10454080;28;20052;-57
2020/12/02 17:26:48;;;;;;;106.80;64.35;;;17.40;68.30;;;;;;10467454;28;20454;-55
2020/12/02 17:31:59;;;;;;;101.13;59.60;;;17.40;68.30;;;;;;10468826;28;20021;-57
2020/12/02 17:37:21;;;;;;;97.57;59.58;;;17.30;68.40;;;;;;10450376;28;20084;-55
2020/12/02 17:42:28;;;;;;;103.00;58.83;;;17.30;68.60;;;;;;10457337;28;20025;-55
2020/12/02 17:47:43;;;;;;;93.57;54.40;;;17.40;68.40;;;;;;10449473;28;20380;-56
2020/12/02 17:53:07;;;;;;;94.28;55.53;;;17.30;68.30;;;;;;10452674;28;20095;-56
2020/12/02 17:58:13;;;;;;;89.05;52.22;;;17.30;68.30;;;;;;10449730;28;20025;-55
2020/12/02 18:03:56;;;;;;;91.10;55.10;;;17.20;68.40;;;;;;10460255;28;20029;-56
2020/12/02 18:09:25;;;;;;;90.82;51.85;;;17.20;68.40;;;;;;10454616;28;20040;-54
2020/12/02 18:14:54;;;;;;;86.07;47.85;;;17.20;68.10;;;;;;10457645;28;20049;-56
2020/12/02 18:20:21;;;;;;;75.55;47.47;;;17.30;67.90;;;;;;10458977;28;20048;-56
2020/12/02 18:25:35;;;;;;;78.40;47.15;;;17.40;68.10;;;;;;10468595;28;20469;-57
2020/12/02 18:31:13;;;;;;;68.80;42.55;;;17.40;68.50;;;;;;10459033;28;20055;-56
2020/12/02 18:36:19;;;;;;;58.80;34.70;;;17.30;67.30;;;;;;10459290;28;20052;-57
2020/12/02 18:42:02;;;;;;;52.05;32.75;;;17.30;66.40;;;;;;10461494;28;20083;-56
2020/12/02 18:47:09;;;;;;;47.60;30.58;;;17.30;66.20;;;;;;10457647;28;20032;-56
2020/12/02 18:52:14;;;;;;;47.22;32.03;;;17.20;66.40;;;;;;10436698;28;20033;-56
2020/12/02 18:57:45;;;;;;;51.47;30.38;;;17.30;66.10;;;;;;10452953;28;20041;-57
2020/12/02 19:02:52;;;;;;;50.85;27.77;;;17.40;66.60;;;;;;10471164;28;20025;-57
2020/12/02 19:08:18;;;;;;;48.70;28.23;;;17.40;66.40;;;;;;10446115;28;20417;-56
2020/12/02 19:13:35;;;;;;;45.95;25.85;;;17.30;66.50;;;;;;10436457;28;20482;-55
2020/12/02 19:18:58;;;;;;;42.70;26.20;;;17.40;66.50;;;;;;10436229;28;20045;-56
2020/12/02 19:24:28;;;;;;;46.70;27.05;;;17.30;66.50;;;;;;10428480;28;20036;-56
2020/12/02 19:29:59;;;;;;;39.30;22.80;;;17.30;66.70;;;;;;10425319;28;20033;-52
2020/12/02 19:35:31;;;;;;;43.60;23.98;;;17.40;66.70;;;;;;10431708;28;20072;-55
2020/12/02 19:41:11;;;;;;;38.08;22.42;;;17.20;66.70;;;;;;10438121;28;20059;-54
2020/12/02 19:46:49;;;;;;;40.53;23.50;;;17.20;67.00;;;;;;10434554;28;20478;-55
2020/12/02 19:51:55;;;;;;;34.10;21.98;;;17.20;67.60;;;;;;10439379;28;20026;-55
2020/12/02 19:57:13;;;;;;;36.17;21.77;;;17.20;67.20;;;;;;10454234;28;20116;-54
2020/12/02 20:02:28;;;;;;;35.60;21.08;;;17.20;67.20;;;;;;10456545;28;20086;-55
2020/12/02 20:07:53;;;;;;;35.05;19.83;;;17.20;67.30;;;;;;10454476;28;20033;-54
2020/12/02 20:13:35;;;;;;;33.47;19.45;;;17.20;67.20;;;;;;10447966;28;20029;-57
2020/12/02 20:19:09;;;;;;;35.30;19.30;;;17.20;67.30;;;;;;10450290;28;20469;-57
2020/12/02 20:24:33;;;;;;;32.03;19.60;;;17.10;67.40;;;;;;10455574;28;20028;-57
2020/12/02 20:29:42;;;;;;;30.75;19.35;;;17.10;67.60;;;;;;10441850;28;20029;-56
2020/12/02 20:34:54;;;;;;;26.65;18.50;;;17.00;67.70;;;;;;10455433;28;20032;-57
2020/12/02 20:40:01;;;;;;;33.60;18.02;;;16.90;67.80;;;;;;10451511;28;20052;-57
2020/12/02 20:45:11;;;;;;;30.55;17.02;;;16.90;68.00;;;;;;10456027;28;20044;-57
2020/12/02 20:50:11;;;;;;;30.33;16.67;;;16.90;68.80;;;;;;10448893;28;20107;-56
2020/12/02 20:55:15;;;;;;;30.27;17.05;;;16.80;68.40;;;;;;10450267;28;20132;-57
2020/12/02 21:00:19;;;;;;;28.30;16.42;;;16.70;68.70;;;;;;10452027;28;20029;-57
2020/12/02 21:05:30;;;;;;;28.05;16.23;;;16.70;68.80;;;;;;10437175;28;20450;-58
2020/12/02 21:10:32;;;;;;;24.95;15.35;;;16.60;68.90;;;;;;10443874;28;20515;-57
2020/12/02 21:15:32;;;;;;;23.48;15.93;;;16.50;68.90;;;;;;10448085;28;20040;-57
2020/12/02 21:20:43;;;;;;;23.85;15.48;;;16.50;68.90;;;;;;10452487;28;20100;-58
2020/12/02 21:26:05;;;;;;;27.02;15.65;;;16.50;69.00;;;;;;10465088;28;20032;-57
2020/12/02 21:31:18;;;;;;;21.63;14.35;;;16.40;69.00;;;;;;10455707;28;20112;-57
2020/12/02 21:36:52;;;;;;;23.58;14.70;;;16.40;69.00;;;;;;10461185;28;20053;-57
2020/12/02 21:42:02;;;;;;;23.17;14.25;;;16.30;69.10;;;;;;10462536;28;20029;-56
2020/12/02 21:47:27;;;;;;;22.13;14.05;;;16.30;69.10;;;;;;10460982;28;20021;-57
2020/12/02 21:53:01;;;;;;;20.42;13.32;;;16.30;69.10;;;;;;10459003;28;20401;-56
2020/12/02 21:58:02;;;;;;;23.80;16.48;;;16.20;69.00;;;;;;10450089;28;20394;-58
2020/12/02 22:03:36;;;;;;;18.00;13.38;;;16.20;69.00;;;;;;10472898;28;20028;-56
2020/12/02 22:08:38;;;;;;;21.90;12.85;;;16.20;69.00;;;;;;10443373;28;20048;-58
2020/12/02 22:13:47;;;;;;;19.05;14.13;;;16.10;69.00;;;;;;10476320;28;20052;-58
2020/12/02 22:19:18;;;;;;;19.17;13.10;;;16.10;69.00;;;;;;10450783;28;20534;-57
2020/12/02 22:24:37;;;;;;;19.35;12.52;;;16.10;68.90;;;;;;10458393;28;20175;-57
2020/12/02 22:29:41;;;;;;;17.17;12.90;;;16.10;69.10;;;;;;10451053;28;20029;-58
2020/12/02 22:34:49;;;;;;;22.45;13.40;;;16.10;69.10;;;;;;10462941;28;20448;-57
2020/12/02 22:40:07;;;;;;;19.20;11.23;;;16.00;69.10;;;;;;10459171;28;20033;-58
2020/12/02 22:45:17;;;;;;;17.40;12.73;;;16.00;69.00;;;;;;10453266;28;20339;-58
2020/12/02 22:50:26;;;;;;;20.65;12.85;;;16.00;69.00;;;;;;10439223;28;20040;-57
2020/12/02 22:55:36;;;;;;;19.02;12.18;;;16.00;69.00;;;;;;10459528;28;20064;-57
2020/12/02 23:00:47;;;;;;;16.90;11.48;;;15.90;68.90;;;;;;10456947;28;20128;-57
2020/12/02 23:06:05;;;;;;;18.38;12.25;;;15.90;68.80;;;;;;10459051;28;20086;-58
2020/12/02 23:11:06;;;;;;;18.98;12.65;;;15.90;68.90;;;;;;10455242;28;20041;-57
2020/12/02 23:16:13;;;;;;;17.45;12.07;;;15.90;68.90;;;;;;10469007;28;20546;-58
2020/12/02 23:21:19;;;;;;;18.02;12.55;;;15.80;68.80;;;;;;10446769;28;20059;-58
2020/12/02 23:27:02;;;;;;;18.50;12.68;;;15.80;68.90;;;;;;10458261;28;20020;-58
2020/12/02 23:32:48;;;;;;;18.80;13.10;;;15.80;68.90;;;;;;10472362;28;20350;-58
2020/12/02 23:37:50;;;;;;;19.30;12.00;;;15.80;69.00;;;;;;10438342;28;20124;-58
2020/12/02 23:43:02;;;;;;;18.83;11.95;;;15.80;69.00;;;;;;10454947;28;20029;-57
2020/12/02 23:48:18;;;;;;;16.15;11.23;;;15.80;69.00;;;;;;10456748;28;20048;-57
2020/12/02 23:53:24;;;;;;;18.27;11.25;;;15.80;69.00;;;;;;10452907;28;20033;-58
2020/12/02 23:58:31;;;;;;;13.65;10.93;;;15.80;68.90;;;;;;10455632;28;20083;-58
